createdAt,value
2023-09-07T00:00:44.495Z,12.40
2023-09-07T00:03:42.911Z,12.00
2023-09-07T00:06:15.380Z,12.20
2023-09-07T00:08:47.570Z,12.40
2023-09-07T00:11:19.572Z,12.40
2023-09-07T00:13:52.207Z,11.20
2023-09-07T00:16:24.499Z,10.70
2023-09-07T00:18:56.683Z,12.40
2023-09-07T00:21:29.231Z,12.40
2023-09-07T00:24:05.630Z,12.00
2023-09-07T00:26:38.038Z,11.70
2023-09-07T00:29:10.029Z,11.70
2023-09-07T00:31:42.995Z,10.90
2023-09-07T00:34:15.318Z,11.50
2023-09-07T00:36:47.412Z,10.30
2023-09-07T00:39:19.471Z,11.10
2023-09-07T00:41:51.848Z,11.60
2023-09-07T00:44:24.026Z,10.10
2023-09-07T00:46:56.502Z,10.90
2023-09-07T00:49:29.356Z,11.60
2023-09-07T00:52:01.950Z,10.50
2023-09-07T00:54:35.648Z,11.60
2023-09-07T00:57:08.834Z,12.10
2023-09-07T00:59:40.903Z,11.60
2023-09-07T01:02:13.638Z,12.00
2023-09-07T01:04:46.531Z,11.10
2023-09-07T01:07:23.626Z,12.60
2023-09-07T01:10:01.924Z,12.50
2023-09-07T01:12:34.501Z,11.30
2023-09-07T01:15:08.018Z,10.70
2023-09-07T01:17:41.027Z,10.70
2023-09-07T01:20:19.517Z,11.20
2023-09-07T01:22:52.069Z,11.10
2023-09-07T01:25:25.590Z,10.40
2023-09-07T01:27:57.807Z,11.60
2023-09-07T01:30:31.130Z,10.90
2023-09-07T01:33:03.890Z,11.40
2023-09-07T01:35:38.277Z,10.60
2023-09-07T01:38:10.519Z,12.50
2023-09-07T01:40:42.740Z,10.50
2023-09-07T01:43:14.854Z,11.60
2023-09-07T01:45:46.967Z,9.70
2023-09-07T01:48:19.272Z,10.30
2023-09-07T01:50:54.013Z,9.90
2023-09-07T01:53:26.237Z,9.00
2023-09-07T01:56:00.652Z,9.40
2023-09-07T01:58:33.339Z,10.40
2023-09-07T02:01:05.719Z,10.60
2023-09-07T02:03:38.070Z,10.70
2023-09-07T02:06:10.428Z,11.00
2023-09-07T02:08:43.118Z,12.10
2023-09-07T02:11:15.272Z,13.60
2023-09-07T02:13:49.224Z,11.30
2023-09-07T02:16:21.688Z,10.00
2023-09-07T02:19:01.832Z,11.40
2023-09-07T02:21:33.899Z,10.50
2023-09-07T02:24:06.802Z,10.30
2023-09-07T02:26:44.988Z,11.70
2023-09-07T02:29:17.639Z,11.10
2023-09-07T02:31:49.886Z,11.10
2023-09-07T02:34:22.186Z,10.00
2023-09-07T02:36:54.393Z,10.60
2023-09-07T02:39:27.354Z,10.10
2023-09-07T02:41:59.792Z,9.90
2023-09-07T02:44:32.076Z,9.90
2023-09-07T02:47:04.607Z,10.70
2023-09-07T02:49:36.930Z,11.10
2023-09-07T02:52:09.501Z,11.00
2023-09-07T02:54:43.088Z,12.60
2023-09-07T02:57:15.116Z,11.90
2023-09-07T02:59:47.972Z,11.80
2023-09-07T03:02:20.104Z,11.90
2023-09-07T03:05:00.213Z,12.30
2023-09-07T03:07:35.286Z,11.50
2023-09-07T03:10:07.913Z,12.10
2023-09-07T03:12:40.221Z,11.70
2023-09-07T03:15:13.475Z,11.70
2023-09-07T03:17:46.161Z,10.70
2023-09-07T03:20:19.416Z,10.70
2023-09-07T03:22:54.489Z,11.40
2023-09-07T03:25:27.284Z,10.40
2023-09-07T03:27:59.817Z,11.20
2023-09-07T03:30:32.166Z,10.60
2023-09-07T03:33:04.923Z,10.50
2023-09-07T03:35:37.143Z,11.20
2023-09-07T03:38:10.031Z,11.30
2023-09-07T03:40:42.078Z,10.90
2023-09-07T03:43:14.583Z,10.30
2023-09-07T03:45:46.726Z,10.80
2023-09-07T03:48:18.879Z,11.30
2023-09-07T03:50:50.933Z,10.40
2023-09-07T03:53:22.997Z,11.50
2023-09-07T03:55:55.081Z,11.60
2023-09-07T03:58:27.218Z,10.90
2023-09-07T04:01:02.615Z,10.90
2023-09-07T04:03:35.237Z,11.30
2023-09-07T04:06:07.822Z,11.10
2023-09-07T04:08:40.144Z,10.80
2023-09-07T04:11:12.142Z,10.70
2023-09-07T04:13:44.159Z,12.00
2023-09-07T04:16:16.176Z,12.10
2023-09-07T04:18:48.318Z,11.10
2023-09-07T04:21:20.407Z,11.00
2023-09-07T04:23:52.696Z,10.70
2023-09-07T04:26:24.895Z,11.30
2023-09-07T04:28:56.975Z,11.10
2023-09-07T04:31:29.496Z,11.50
2023-09-07T04:34:03.863Z,11.30
2023-09-07T04:36:36.008Z,10.40
2023-09-07T04:39:08.866Z,12.70
2023-09-07T04:41:40.923Z,10.60
2023-09-07T04:44:13.071Z,11.30
2023-09-07T04:46:45.749Z,11.20
2023-09-07T04:49:17.975Z,12.60
2023-09-07T04:51:50.855Z,12.60
2023-09-07T04:54:22.960Z,13.60
2023-09-07T04:56:54.983Z,12.10
2023-09-07T04:59:27.464Z,11.20
2023-09-07T05:02:03.752Z,13.00
2023-09-07T05:04:36.448Z,12.60
2023-09-07T05:07:09.254Z,12.90
2023-09-07T05:09:41.967Z,11.80
2023-09-07T05:12:15.660Z,13.00
2023-09-07T05:14:48.038Z,11.00
2023-09-07T05:17:20.151Z,12.00
2023-09-07T05:19:52.295Z,13.70
2023-09-07T05:22:24.541Z,12.70
2023-09-07T05:24:56.730Z,12.40
2023-09-07T05:27:28.806Z,12.60
2023-09-07T05:30:00.932Z,12.80
2023-09-07T05:32:33.489Z,12.30
2023-09-07T05:35:07.023Z,14.10
2023-09-07T05:37:39.791Z,13.60
2023-09-07T05:40:13.747Z,14.60
2023-09-07T05:42:45.937Z,14.60
2023-09-07T05:45:18.377Z,14.00
2023-09-07T05:47:50.991Z,16.40
2023-09-07T05:50:23.503Z,15.70
2023-09-07T05:52:56.178Z,15.70
2023-09-07T05:55:28.536Z,15.20
2023-09-07T05:58:03.463Z,14.40
2023-09-07T06:00:40.343Z,14.30
2023-09-07T06:03:13.055Z,15.10
2023-09-07T06:05:45.824Z,13.70
2023-09-07T06:08:18.477Z,14.10
2023-09-07T06:10:50.846Z,14.70
2023-09-07T06:13:22.944Z,14.50
2023-09-07T06:15:55.688Z,14.70
2023-09-07T06:18:28.268Z,14.70
2023-09-07T06:21:00.643Z,15.60
2023-09-07T06:23:33.012Z,13.00
2023-09-07T06:26:05.491Z,15.90
2023-09-07T06:28:37.916Z,14.30
2023-09-07T06:31:10.238Z,14.50
2023-09-07T06:33:42.804Z,15.70
2023-09-07T06:36:14.938Z,13.70
2023-09-07T06:38:47.236Z,13.20
2023-09-07T06:41:19.701Z,14.70
2023-09-07T06:43:51.877Z,14.50
2023-09-07T06:46:24.815Z,13.90
2023-09-07T06:48:57.762Z,13.60
2023-09-07T06:51:30.461Z,13.50
2023-09-07T06:54:02.804Z,12.90
2023-09-07T06:56:35.943Z,13.10
2023-09-07T06:59:08.714Z,12.20
2023-09-07T07:01:41.230Z,12.50
2023-09-07T07:04:13.673Z,11.80
2023-09-07T07:06:46.492Z,12.10
2023-09-07T07:09:18.996Z,12.00
2023-09-07T07:11:51.339Z,12.20
2023-09-07T07:14:23.505Z,12.90
2023-09-07T07:16:56.093Z,12.10
2023-09-07T07:19:28.660Z,12.50
2023-09-07T07:22:01.345Z,12.60
2023-09-07T07:24:34.380Z,12.40
2023-09-07T07:27:07.224Z,12.40
2023-09-07T07:29:40.729Z,13.00
2023-09-07T07:32:13.315Z,12.50
2023-09-07T07:34:45.817Z,12.70
2023-09-07T07:37:18.128Z,13.10
2023-09-07T07:39:50.500Z,12.40
2023-09-07T07:42:24.195Z,13.00
2023-09-07T07:44:56.784Z,12.10
2023-09-07T07:47:29.147Z,11.60
2023-09-07T07:50:01.550Z,12.10
2023-09-07T07:52:34.244Z,12.80
2023-09-07T07:55:07.568Z,11.40
2023-09-07T07:57:39.748Z,10.40
2023-09-07T08:00:14.873Z,10.60
2023-09-07T08:02:50.777Z,10.30
2023-09-07T08:05:23.233Z,10.50
2023-09-07T08:07:55.747Z,10.60
2023-09-07T08:10:30.143Z,9.80
2023-09-07T08:13:05.164Z,9.10
2023-09-07T08:15:38.346Z,9.20
2023-09-07T08:18:11.637Z,9.20
2023-09-07T08:20:44.163Z,8.70
2023-09-07T08:23:16.505Z,8.40
2023-09-07T08:25:48.822Z,8.00
2023-09-07T08:28:23.437Z,7.50
2023-09-07T08:30:56.388Z,7.30
2023-09-07T08:33:30.702Z,7.70
2023-09-07T08:36:02.956Z,7.40
2023-09-07T08:38:35.233Z,8.50
2023-09-07T08:41:08.727Z,7.20
2023-09-07T08:43:48.590Z,6.90
2023-09-07T08:46:22.831Z,7.40
2023-09-07T08:48:59.489Z,8.30
2023-09-07T08:51:34.023Z,8.10
2023-09-07T08:54:06.594Z,6.90
2023-09-07T08:56:39.520Z,6.90
2023-09-07T08:59:12.116Z,5.80
2023-09-07T09:01:44.716Z,5.60
2023-09-07T09:04:17.818Z,5.50
2023-09-07T09:06:50.078Z,5.70
2023-09-07T09:09:28.445Z,5.70
2023-09-07T09:12:10.553Z,5.60
2023-09-07T09:14:44.020Z,5.90
2023-09-07T09:17:19.455Z,6.10
2023-09-07T09:19:51.724Z,6.10
2023-09-07T09:22:25.678Z,5.90
2023-09-07T09:24:57.930Z,5.80
2023-09-07T09:27:30.024Z,6.10
2023-09-07T09:30:02.241Z,5.60
2023-09-07T09:32:34.653Z,6.30
2023-09-07T09:35:07.896Z,5.30
2023-09-07T09:37:48.534Z,5.10
2023-09-07T09:40:21.311Z,5.40
2023-09-07T09:42:57.324Z,5.80
2023-09-07T09:45:31.215Z,5.20
2023-09-07T09:48:05.181Z,5.10
2023-09-07T09:50:39.254Z,5.10
2023-09-07T09:53:17.169Z,5.10
2023-09-07T09:55:50.299Z,5.50
2023-09-07T09:58:23.340Z,5.40
2023-09-07T10:00:59.991Z,5.90
2023-09-07T10:03:34.700Z,5.30
2023-09-07T10:06:13.748Z,5.10
2023-09-07T10:08:56.933Z,5.10
2023-09-07T10:11:34.291Z,5.30
2023-09-07T10:14:08.378Z,4.90
2023-09-07T10:16:48.688Z,5.30
2023-09-07T10:19:22.210Z,4.90
2023-09-07T10:21:56.590Z,4.80
2023-09-07T10:24:30.276Z,5.00
2023-09-07T10:27:04.496Z,5.10
2023-09-07T10:29:47.418Z,5.40
2023-09-07T10:32:20.561Z,4.90
2023-09-07T10:34:54.209Z,4.80
2023-09-07T10:37:32.945Z,6.00
2023-09-07T10:40:05.570Z,5.00
2023-09-07T10:42:37.989Z,6.10
2023-09-07T10:45:18.998Z,4.70
2023-09-07T10:47:51.788Z,4.80
2023-09-07T10:50:24.317Z,5.20
2023-09-07T10:52:57.930Z,5.10
2023-09-07T10:55:30.217Z,5.50
2023-09-07T10:58:02.883Z,4.80
2023-09-07T11:00:35.387Z,4.70
2023-09-07T11:03:16.263Z,5.10
2023-09-07T11:05:49.390Z,4.80
2023-09-07T11:08:21.970Z,4.20
2023-09-07T11:10:55.292Z,4.80
2023-09-07T11:13:28.625Z,4.60
2023-09-07T11:16:01.691Z,4.60
2023-09-07T11:18:37.335Z,4.80
2023-09-07T11:21:09.833Z,4.70
2023-09-07T11:23:42.260Z,3.90
2023-09-07T11:26:17.175Z,4.30
2023-09-07T11:28:50.611Z,5.00
2023-09-07T11:31:24.018Z,5.00
2023-09-07T11:33:57.734Z,4.30
2023-09-07T11:36:29.941Z,4.00
2023-09-07T11:39:02.209Z,4.70
2023-09-07T11:41:34.472Z,4.20
2023-09-07T11:44:06.892Z,4.10
2023-09-07T11:46:39.522Z,4.30
2023-09-07T11:49:11.757Z,4.00
2023-09-07T11:51:44.003Z,4.50
2023-09-07T11:54:16.230Z,4.70
2023-09-07T11:56:48.707Z,4.50
2023-09-07T11:59:20.767Z,4.20
2023-09-07T12:01:53.124Z,4.30
2023-09-07T12:04:25.377Z,4.30
2023-09-07T12:06:57.468Z,4.00
2023-09-07T12:09:29.545Z,4.20
2023-09-07T12:12:02.116Z,4.50
2023-09-07T12:14:35.183Z,4.00
2023-09-07T12:17:07.681Z,4.50
2023-09-07T12:19:43.089Z,4.30
2023-09-07T12:22:15.254Z,4.00
2023-09-07T12:24:49.830Z,4.30
2023-09-07T12:27:25.760Z,4.30
2023-09-07T12:29:58.402Z,4.30
2023-09-07T12:32:30.536Z,3.90
2023-09-07T12:35:03.308Z,4.00
2023-09-07T12:37:35.280Z,4.40
2023-09-07T12:40:12.786Z,4.20
2023-09-07T12:42:46.721Z,4.20
2023-09-07T12:45:18.923Z,4.60
2023-09-07T12:47:51.118Z,4.20
2023-09-07T12:50:24.635Z,4.30
2023-09-07T12:52:56.790Z,4.50
2023-09-07T12:55:31.015Z,4.00
2023-09-07T12:58:03.146Z,4.30
2023-09-07T13:00:35.879Z,4.70
2023-09-07T13:03:09.074Z,4.50
2023-09-07T13:05:41.852Z,6.00
2023-09-07T13:08:14.363Z,4.30
2023-09-07T13:10:46.485Z,3.90
2023-09-07T13:13:18.604Z,4.60
2023-09-07T13:15:50.741Z,4.00
2023-09-07T13:18:22.961Z,4.50
2023-09-07T13:21:00.775Z,4.40
2023-09-07T13:23:33.803Z,4.30
2023-09-07T13:26:06.034Z,4.30
2023-09-07T13:28:38.081Z,4.00
2023-09-07T13:31:10.474Z,4.10
2023-09-07T13:33:42.604Z,4.70
2023-09-07T13:36:14.675Z,4.70
2023-09-07T13:38:46.709Z,4.20
2023-09-07T13:41:18.707Z,4.10
2023-09-07T13:43:51.075Z,4.30
2023-09-07T13:46:24.810Z,4.30
2023-09-07T13:48:57.495Z,4.30
2023-09-07T13:51:33.016Z,3.90
2023-09-07T13:54:05.210Z,4.00
2023-09-07T13:56:38.565Z,4.10
2023-09-07T13:59:11.058Z,3.90
2023-09-07T14:01:43.247Z,4.60
2023-09-07T14:04:15.313Z,4.20
2023-09-07T14:06:48.225Z,4.20
2023-09-07T14:09:21.212Z,4.40
2023-09-07T14:11:53.224Z,4.70
2023-09-07T14:14:25.360Z,4.20
2023-09-07T14:16:59.699Z,4.20
2023-09-07T14:19:32.710Z,4.30
2023-09-07T14:22:04.857Z,4.60
2023-09-07T14:24:36.835Z,4.50
2023-09-07T14:27:10.164Z,4.20
2023-09-07T14:29:42.262Z,4.40
2023-09-07T14:32:14.482Z,4.20
2023-09-07T14:34:46.500Z,3.60
2023-09-07T14:37:18.839Z,4.40
2023-09-07T14:39:52.027Z,4.30
2023-09-07T14:42:24.026Z,4.10
2023-09-07T14:44:58.692Z,3.90
2023-09-07T14:47:31.100Z,4.10
2023-09-07T14:50:04.574Z,4.10
2023-09-07T14:52:41.965Z,4.50
2023-09-07T14:55:14.032Z,4.00
2023-09-07T14:57:46.367Z,4.10
2023-09-07T15:00:19.176Z,4.50
2023-09-07T15:02:51.336Z,3.80
2023-09-07T15:05:23.762Z,4.60
2023-09-07T15:07:55.957Z,4.50
2023-09-07T15:10:28.884Z,4.40
2023-09-07T15:13:00.984Z,4.50
2023-09-07T15:15:37.721Z,4.40
2023-09-07T15:18:10.729Z,4.30
2023-09-07T15:20:42.942Z,4.40
2023-09-07T15:23:15.028Z,4.20
2023-09-07T15:25:47.112Z,4.10
2023-09-07T15:28:21.523Z,4.70
2023-09-07T15:30:53.613Z,4.40
2023-09-07T15:33:26.091Z,4.70
2023-09-07T15:35:58.266Z,4.60
2023-09-07T15:38:31.400Z,4.80
2023-09-07T15:41:06.391Z,4.90
2023-09-07T15:43:38.492Z,4.90
2023-09-07T15:46:11.086Z,4.50
2023-09-07T15:48:43.213Z,5.00
2023-09-07T15:51:15.462Z,4.80
2023-09-07T15:53:47.550Z,5.40
2023-09-07T15:56:20.023Z,5.20
2023-09-07T15:58:52.065Z,4.50
2023-09-07T16:01:24.327Z,4.90
2023-09-07T16:03:56.519Z,4.80
2023-09-07T16:06:30.387Z,4.50
2023-09-07T16:09:02.756Z,5.40
2023-09-07T16:11:35.010Z,5.00
2023-09-07T16:14:07.904Z,5.40
2023-09-07T16:16:39.986Z,5.30
2023-09-07T16:19:12.076Z,5.30
2023-09-07T16:21:44.103Z,5.60
2023-09-07T16:24:17.288Z,5.20
2023-09-07T16:26:49.370Z,5.70
2023-09-07T16:29:21.434Z,5.40
2023-09-07T16:31:53.553Z,5.60
2023-09-07T16:34:28.091Z,5.10
2023-09-07T16:37:00.130Z,5.30
2023-09-07T16:39:32.208Z,5.80
2023-09-07T16:42:04.639Z,5.40
2023-09-07T16:44:36.802Z,5.50
2023-09-07T16:47:09.871Z,5.30
2023-09-07T16:49:41.998Z,6.00
2023-09-07T16:52:14.091Z,6.20
2023-09-07T16:54:46.152Z,5.50
2023-09-07T16:57:18.317Z,5.60
2023-09-07T16:59:57.285Z,5.10
2023-09-07T17:02:30.564Z,5.80
2023-09-07T17:05:04.136Z,6.30
2023-09-07T17:07:36.330Z,6.00
2023-09-07T17:10:10.256Z,5.60
2023-09-07T17:12:42.306Z,6.20
2023-09-07T17:15:15.435Z,5.90
2023-09-07T17:17:50.593Z,6.10
2023-09-07T17:20:23.066Z,5.90
2023-09-07T17:22:55.528Z,6.40
2023-09-07T17:25:27.565Z,6.60
2023-09-07T17:27:59.777Z,8.00
2023-09-07T17:30:35.591Z,7.70
2023-09-07T17:33:08.546Z,6.90
2023-09-07T17:35:40.835Z,6.90
2023-09-07T17:38:13.025Z,7.30
2023-09-07T17:40:45.238Z,7.20
2023-09-07T17:43:17.620Z,6.90
2023-09-07T17:45:49.768Z,7.10
2023-09-07T17:48:21.995Z,7.40
2023-09-07T17:50:54.233Z,7.30
2023-09-07T17:53:28.149Z,6.60
2023-09-07T17:56:00.283Z,8.70
2023-09-07T17:58:32.726Z,7.80
2023-09-07T18:01:05.758Z,8.30
2023-09-07T18:03:38.121Z,7.50
2023-09-07T18:06:10.825Z,7.40
2023-09-07T18:08:43.128Z,7.60
2023-09-07T18:11:15.372Z,7.40
2023-09-07T18:13:49.562Z,7.80
2023-09-07T18:16:24.995Z,7.30
2023-09-07T18:18:57.584Z,8.40
2023-09-07T18:21:30.400Z,8.40
2023-09-07T18:24:02.994Z,7.90
2023-09-07T18:26:35.188Z,8.20
2023-09-07T18:29:07.304Z,8.70
2023-09-07T18:31:40.643Z,7.80
2023-09-07T18:34:13.341Z,7.70
2023-09-07T18:36:45.594Z,7.90
2023-09-07T18:39:17.672Z,7.10
2023-09-07T18:41:49.889Z,7.10
2023-09-07T18:44:22.042Z,7.60
2023-09-07T18:46:54.846Z,8.00
2023-09-07T18:49:27.139Z,7.60
2023-09-07T18:51:59.313Z,7.20
2023-09-07T18:54:31.355Z,7.70
2023-09-07T18:57:03.529Z,8.10
2023-09-07T18:59:35.746Z,7.50
2023-09-07T19:02:08.005Z,9.50
2023-09-07T19:04:40.760Z,8.30
2023-09-07T19:07:15.584Z,7.10
2023-09-07T19:09:47.892Z,8.40
2023-09-07T19:12:20.235Z,9.60
2023-09-07T19:14:52.719Z,7.70
2023-09-07T19:17:25.381Z,9.90
2023-09-07T19:19:58.333Z,10.30
2023-09-07T19:22:32.074Z,11.10
2023-09-07T19:25:05.041Z,9.60
2023-09-07T19:27:37.161Z,9.40
2023-09-07T19:30:11.501Z,10.30
2023-09-07T19:32:43.679Z,9.10
2023-09-07T19:35:15.903Z,8.90
2023-09-07T19:37:48.475Z,8.50
2023-09-07T19:40:22.058Z,7.00
2023-09-07T19:42:54.362Z,8.20
2023-09-07T19:45:26.604Z,7.70
2023-09-07T19:47:58.973Z,7.40
2023-09-07T19:50:32.167Z,7.00
2023-09-07T19:53:04.364Z,6.70
2023-09-07T19:55:36.460Z,6.80
2023-09-07T19:58:08.720Z,7.50
2023-09-07T20:00:40.878Z,8.10
2023-09-07T20:03:13.301Z,9.60
2023-09-07T20:05:45.887Z,10.60
2023-09-07T20:08:18.089Z,9.20
2023-09-07T20:10:50.266Z,9.10
2023-09-07T20:13:22.355Z,8.10
2023-09-07T20:15:54.442Z,8.10
2023-09-07T20:18:26.752Z,8.30
2023-09-07T20:20:59.000Z,9.20
2023-09-07T20:23:33.692Z,8.40
2023-09-07T20:26:05.998Z,9.00
2023-09-07T20:28:38.290Z,9.20
2023-09-07T20:31:11.415Z,8.50
2023-09-07T20:33:44.050Z,9.50
2023-09-07T20:36:16.888Z,9.50
2023-09-07T20:38:49.144Z,10.10
2023-09-07T20:41:21.355Z,9.10
2023-09-07T20:43:53.561Z,9.10
2023-09-07T20:46:25.960Z,10.00
2023-09-07T20:48:58.250Z,9.60
2023-09-07T20:51:30.747Z,10.50
2023-09-07T20:54:04.121Z,10.70
2023-09-07T20:56:36.793Z,10.60
2023-09-07T20:59:09.021Z,12.30
2023-09-07T21:01:41.120Z,11.80
2023-09-07T21:04:13.187Z,12.60
2023-09-07T21:06:45.578Z,12.40
2023-09-07T21:09:17.950Z,10.80
2023-09-07T21:11:50.228Z,10.40
2023-09-07T21:14:22.622Z,10.00
2023-09-07T21:16:55.346Z,9.70
2023-09-07T21:19:27.643Z,9.50
2023-09-07T21:21:59.619Z,9.30
2023-09-07T21:24:31.951Z,9.70
2023-09-07T21:27:04.595Z,9.10
2023-09-07T21:29:36.916Z,9.20
2023-09-07T21:32:09.584Z,11.30
2023-09-07T21:34:41.876Z,8.90
2023-09-07T21:37:14.229Z,9.90
2023-09-07T21:39:51.240Z,9.20
2023-09-07T21:42:23.431Z,10.10
2023-09-07T21:44:55.672Z,9.80
2023-09-07T21:47:28.338Z,9.80
2023-09-07T21:50:01.011Z,9.80
2023-09-07T21:52:33.290Z,10.50
2023-09-07T21:55:05.844Z,10.30
2023-09-07T21:57:38.117Z,9.20
2023-09-07T22:00:13.416Z,10.70
2023-09-07T22:02:46.082Z,10.00
2023-09-07T22:05:18.405Z,11.00
2023-09-07T22:07:50.983Z,11.10
2023-09-07T22:10:23.356Z,11.50
2023-09-07T22:13:00.175Z,10.20
2023-09-07T22:15:32.644Z,9.90
2023-09-07T22:18:05.352Z,9.60
2023-09-07T22:20:37.883Z,10.50
2023-09-07T22:23:10.050Z,10.50
2023-09-07T22:25:42.305Z,11.30
2023-09-07T22:28:14.631Z,10.00
2023-09-07T22:30:46.903Z,10.40
2023-09-07T22:33:19.662Z,12.20
2023-09-07T22:35:51.832Z,11.00
2023-09-07T22:38:24.656Z,11.20
2023-09-07T22:41:00.012Z,9.60
2023-09-07T22:43:32.051Z,11.00
2023-09-07T22:46:04.042Z,10.80
2023-09-07T22:48:36.839Z,10.70
2023-09-07T22:51:09.677Z,11.20
2023-09-07T22:53:42.006Z,10.50
2023-09-07T22:56:14.340Z,10.90
2023-09-07T22:58:46.588Z,12.30
2023-09-07T23:01:19.043Z,10.10
2023-09-07T23:03:51.634Z,10.20
2023-09-07T23:06:24.167Z,10.00
2023-09-07T23:08:56.516Z,11.70
2023-09-07T23:11:28.734Z,11.70
2023-09-07T23:14:01.096Z,11.80
2023-09-07T23:16:37.576Z,10.80
2023-09-07T23:19:09.976Z,12.40
2023-09-07T23:21:42.415Z,11.50
2023-09-07T23:24:15.067Z,11.90
2023-09-07T23:26:47.501Z,10.80
2023-09-07T23:29:20.121Z,11.30
2023-09-07T23:31:52.787Z,13.40
2023-09-07T23:34:25.139Z,12.30
2023-09-07T23:36:58.813Z,13.00
2023-09-07T23:39:31.181Z,11.10
2023-09-07T23:42:03.383Z,12.00
2023-09-07T23:44:35.631Z,11.60
2023-09-07T23:47:08.159Z,11.60
2023-09-07T23:49:40.280Z,10.90
2023-09-07T23:52:12.381Z,11.80
2023-09-07T23:54:44.815Z,11.30
2023-09-07T23:57:16.891Z,11.50
2023-09-07T23:59:48.940Z,12.40
